createdAt,value
2018-02-05T00:01:42.095Z,56.37
2018-02-05T00:04:09.714Z,51.97
2018-02-05T00:06:37.284Z,59.37
2018-02-05T00:09:04.933Z,47.63
2018-02-05T00:11:32.526Z,49.17
2018-02-05T00:14:00.092Z,51.70
2018-02-05T00:16:27.686Z,62.28
2018-02-05T00:18:55.259Z,46.67
2018-02-05T00:21:22.799Z,50.83
2018-02-05T00:23:50.412Z,56.60
2018-02-05T00:26:17.980Z,49.37
2018-02-05T00:28:45.644Z,51.83
2018-02-05T00:31:13.271Z,56.43
2018-02-05T00:33:40.835Z,45.77
2018-02-05T00:36:08.633Z,48.27
2018-02-05T00:38:36.235Z,38.53
2018-02-05T00:41:03.958Z,33.93
2018-02-05T00:43:31.550Z,45.33
2018-02-05T00:45:59.165Z,50.20
2018-02-05T00:48:26.719Z,49.07
2018-02-05T00:50:54.280Z,43.70
2018-02-05T00:53:21.891Z,48.07
2018-02-05T00:55:49.438Z,42.80
2018-02-05T00:58:17.018Z,55.20
2018-02-05T01:00:44.651Z,45.50
2018-02-05T01:03:12.232Z,72.53
2018-02-05T01:05:39.817Z,54.83
2018-02-05T01:08:07.424Z,46.40
2018-02-05T01:10:34.993Z,56.03
2018-02-05T01:13:02.548Z,63.47
2018-02-05T01:15:30.133Z,75.13
2018-02-05T01:17:57.845Z,53.57
2018-02-05T01:20:25.427Z,51.80
2018-02-05T01:22:53.034Z,65.20
2018-02-05T01:25:20.587Z,60.43
2018-02-05T01:27:48.142Z,68.23
2018-02-05T01:30:15.739Z,75.43
2018-02-05T01:32:43.316Z,60.80
2018-02-05T01:35:10.900Z,76.00
2018-02-05T01:37:38.500Z,66.33
2018-02-05T01:40:06.055Z,74.63
2018-02-05T01:42:33.629Z,60.40
2018-02-05T01:45:01.234Z,57.43
2018-02-05T01:47:28.793Z,60.60
2018-02-05T01:49:56.365Z,61.03
2018-02-05T01:52:23.960Z,59.40
2018-02-05T01:54:51.530Z,60.30
2018-02-05T01:57:20.917Z,60.40
2018-02-05T01:59:50.585Z,55.53
2018-02-05T02:02:19.717Z,55.00
2018-02-05T02:04:48.985Z,48.33
2018-02-05T02:07:18.386Z,51.53
2018-02-05T02:09:47.478Z,53.80
2018-02-05T02:12:17.252Z,48.67
2018-02-05T02:14:46.533Z,57.03
2018-02-05T02:17:15.695Z,51.57
2018-02-05T02:19:45.026Z,64.90
2018-02-05T02:22:14.525Z,47.00
2018-02-05T02:24:42.174Z,56.33
2018-02-05T02:27:09.899Z,59.03
2018-02-05T02:29:37.494Z,55.10
2018-02-05T02:32:05.066Z,63.70
2018-02-05T02:34:32.636Z,53.50
2018-02-05T02:37:00.243Z,46.70
2018-02-05T02:39:28.019Z,56.47
2018-02-05T02:41:55.598Z,51.17
2018-02-05T02:44:23.200Z,53.10
2018-02-05T02:46:50.774Z,52.97
2018-02-05T02:49:18.344Z,49.83
2018-02-05T02:51:45.941Z,67.00
2018-02-05T02:54:13.493Z,52.53
2018-02-05T02:56:41.065Z,61.20
2018-02-05T02:59:08.685Z,50.90
2018-02-05T03:01:36.257Z,42.13
2018-02-05T03:04:04.025Z,55.20
2018-02-05T03:06:31.637Z,59.60
2018-02-05T03:08:59.251Z,55.67
2018-02-05T03:11:26.832Z,77.30
2018-02-05T03:13:54.514Z,60.10
2018-02-05T03:16:22.089Z,74.37
2018-02-05T03:18:49.661Z,54.80
2018-02-05T03:21:17.368Z,60.30
2018-02-05T03:23:44.942Z,59.93
2018-02-05T03:26:12.512Z,68.63
2018-02-05T03:28:40.111Z,68.37
2018-02-05T03:31:07.679Z,69.83
2018-02-05T03:33:35.461Z,64.97
2018-02-05T03:36:03.125Z,58.83
2018-02-05T03:38:30.833Z,67.10
2018-02-05T03:40:58.649Z,60.17
2018-02-05T03:43:26.328Z,66.07
2018-02-05T03:45:53.895Z,69.50
2018-02-05T03:48:21.471Z,58.13
2018-02-05T03:50:49.110Z,61.90
2018-02-05T03:53:16.678Z,57.00
2018-02-05T03:55:44.267Z,64.83
2018-02-05T03:58:11.892Z,54.73
2018-02-05T04:00:39.446Z,57.73
2018-02-05T04:03:07.016Z,48.63
2018-02-05T04:05:34.636Z,49.27
2018-02-05T04:08:02.213Z,53.63
2018-02-05T04:10:29.800Z,47.83
2018-02-05T04:12:57.689Z,53.70
2018-02-05T04:15:25.304Z,53.07
2018-02-05T04:17:52.975Z,50.77
2018-02-05T04:20:20.589Z,56.23
2018-02-05T04:22:48.171Z,55.33
2018-02-05T04:25:15.734Z,60.50
2018-02-05T04:27:43.338Z,66.17
2018-02-05T04:30:10.910Z,65.33
2018-02-05T04:32:38.480Z,62.50
2018-02-05T04:35:06.111Z,69.63
2018-02-05T04:37:33.741Z,57.20
2018-02-05T04:40:01.323Z,59.08
2018-02-05T04:42:28.939Z,60.43
2018-02-05T04:44:56.501Z,53.87
2018-02-05T04:47:24.158Z,52.73
2018-02-05T04:49:51.800Z,52.53
2018-02-05T04:52:19.379Z,48.93
2018-02-05T04:54:47.099Z,46.57
2018-02-05T04:57:14.720Z,47.60
2018-02-05T04:59:42.291Z,55.07
2018-02-05T05:02:09.874Z,55.77
2018-02-05T05:04:37.488Z,54.10
2018-02-05T05:07:05.070Z,62.00
2018-02-05T05:09:32.650Z,62.15
2018-02-05T05:12:00.274Z,49.40
2018-02-05T05:14:27.866Z,57.73
2018-02-05T05:16:55.458Z,55.67
2018-02-05T05:19:23.077Z,55.63
2018-02-05T05:21:50.664Z,57.37
2018-02-05T05:24:18.248Z,69.13
2018-02-05T05:26:45.867Z,62.20
2018-02-05T05:29:13.435Z,57.30
2018-02-05T05:31:40.999Z,63.93
2018-02-05T05:34:08.597Z,64.93
2018-02-05T05:36:36.169Z,53.53
2018-02-05T05:39:03.789Z,53.63
2018-02-05T05:41:31.398Z,59.40
2018-02-05T05:43:59.014Z,65.43
2018-02-05T05:46:26.591Z,68.40
2018-02-05T05:48:54.349Z,75.40
2018-02-05T05:51:21.933Z,71.60
2018-02-05T05:53:49.499Z,90.00
2018-02-05T05:56:17.120Z,82.40
2018-02-05T05:58:44.698Z,62.87
2018-02-05T06:01:12.270Z,68.90
2018-02-05T06:03:39.882Z,69.57
2018-02-05T06:06:07.461Z,74.27
2018-02-05T06:08:35.014Z,67.80
2018-02-05T06:11:02.616Z,60.40
2018-02-05T06:13:30.205Z,63.03
2018-02-05T06:15:57.879Z,59.33
2018-02-05T06:18:25.498Z,64.97
2018-02-05T06:20:53.063Z,59.87
2018-02-05T06:23:20.690Z,56.47
2018-02-05T06:25:48.350Z,58.75
2018-02-05T06:28:16.011Z,49.70
2018-02-05T06:30:43.676Z,55.03
2018-02-05T06:33:11.293Z,38.50
2018-02-05T06:35:38.863Z,42.30
2018-02-05T06:38:06.442Z,39.33
2018-02-05T06:40:34.047Z,43.43
2018-02-05T06:43:01.612Z,48.70
2018-02-05T06:45:29.208Z,44.27
2018-02-05T06:47:56.815Z,51.13
2018-02-05T06:50:36.229Z,59.63
2018-02-05T06:53:15.418Z,60.10
2018-02-05T06:55:47.811Z,64.70
2018-02-05T06:58:15.723Z,57.00
2018-02-05T07:00:43.476Z,52.13
2018-02-05T07:03:11.056Z,49.97
2018-02-05T07:05:38.734Z,56.20
2018-02-05T07:08:06.339Z,56.77
2018-02-05T07:10:33.913Z,63.03
2018-02-05T07:13:01.532Z,71.17
2018-02-05T07:15:29.128Z,68.03
2018-02-05T07:17:56.712Z,59.47
2018-02-05T07:20:24.361Z,56.13
2018-02-05T07:22:52.099Z,53.73
2018-02-05T07:25:19.729Z,61.03
2018-02-05T07:27:47.492Z,81.03
2018-02-05T07:30:15.250Z,61.57
2018-02-05T07:32:42.830Z,48.43
2018-02-05T07:35:10.544Z,38.67
2018-02-05T07:37:38.120Z,41.47
2018-02-05T07:40:05.757Z,40.13
2018-02-05T07:42:33.374Z,46.87
2018-02-05T07:45:00.973Z,41.00
2018-02-05T07:47:28.597Z,46.33
2018-02-05T07:49:56.256Z,40.73
2018-02-05T07:52:23.857Z,35.30
2018-02-05T07:54:51.444Z,45.27
2018-02-05T07:57:19.052Z,41.67
2018-02-05T07:59:46.624Z,45.03
2018-02-05T08:02:14.251Z,33.33
2018-02-05T08:04:41.947Z,34.03
2018-02-05T08:07:09.524Z,32.67
2018-02-05T08:09:37.101Z,34.03
2018-02-05T08:12:04.711Z,34.40
2018-02-05T08:14:32.292Z,29.47
2018-02-05T08:16:59.907Z,30.17
2018-02-05T08:19:27.569Z,29.43
2018-02-05T08:21:55.135Z,27.73
2018-02-05T08:24:22.730Z,27.60
2018-02-05T08:26:50.325Z,35.70
2018-02-05T08:29:17.902Z,28.83
2018-02-05T08:31:45.486Z,33.27
2018-02-05T08:34:13.085Z,32.57
2018-02-05T08:36:40.670Z,28.47
2018-02-05T08:39:08.240Z,28.07
2018-02-05T08:41:35.862Z,29.73
2018-02-05T08:44:03.456Z,28.47
2018-02-05T08:46:31.072Z,26.33
2018-02-05T08:48:58.682Z,28.63
2018-02-05T08:51:26.267Z,28.27
2018-02-05T08:53:53.904Z,22.17
2018-02-05T08:56:21.522Z,23.83
2018-02-05T08:58:49.097Z,27.00
2018-02-05T09:01:16.677Z,27.57
2018-02-05T09:03:44.296Z,33.43
2018-02-05T09:06:11.881Z,24.77
2018-02-05T09:08:39.443Z,30.53
2018-02-05T09:11:07.048Z,26.43
2018-02-05T09:13:34.630Z,28.57
2018-02-05T09:16:02.311Z,21.20
2018-02-05T09:18:29.923Z,31.07
2018-02-05T09:20:57.517Z,30.03
2018-02-05T09:23:25.104Z,27.10
2018-02-05T09:25:52.708Z,22.73
2018-02-05T09:28:20.282Z,31.50
2018-02-05T09:30:47.927Z,35.40
2018-02-05T09:33:15.536Z,27.70
2018-02-05T09:35:43.109Z,19.33
2018-02-05T09:38:10.682Z,21.90
2018-02-05T09:40:38.290Z,22.20
2018-02-05T09:43:05.877Z,22.63
2018-02-05T09:48:07.465Z,40.50
2018-02-05T09:50:35.074Z,26.03
2018-02-05T09:53:02.730Z,25.50
2018-02-05T09:55:30.344Z,22.77
2018-02-05T09:57:57.924Z,21.67
2018-02-05T10:00:25.508Z,17.47
2018-02-05T10:02:53.113Z,29.67
2018-02-05T10:05:20.685Z,19.70
2018-02-05T10:07:48.277Z,22.60
2018-02-05T10:10:15.908Z,14.63
2018-02-05T10:12:43.518Z,14.00
2018-02-05T10:15:11.098Z,20.80
2018-02-05T10:17:38.712Z,35.47
2018-02-05T10:20:06.272Z,24.10
2018-02-05T10:22:33.832Z,22.03
2018-02-05T10:25:01.436Z,18.73
2018-02-05T10:27:28.993Z,19.70
2018-02-05T10:29:56.573Z,23.17
2018-02-05T10:32:24.222Z,26.73
2018-02-05T10:34:51.883Z,29.43
2018-02-05T10:37:20.750Z,38.37
2018-02-05T10:39:49.091Z,15.87
2018-02-05T10:42:18.129Z,23.63
2018-02-05T10:44:47.420Z,29.43
2018-02-05T10:47:16.897Z,20.50
2018-02-05T10:49:47.204Z,18.43
2018-02-05T10:52:16.429Z,23.30
2018-02-05T10:54:44.902Z,14.67
2018-02-05T10:57:13.082Z,16.03
2018-02-05T10:59:41.357Z,19.13
2018-02-05T11:02:09.960Z,16.97
2018-02-05T11:04:38.334Z,14.63
2018-02-05T11:07:07.010Z,20.83
2018-02-05T11:09:36.404Z,19.43
2018-02-05T11:12:05.043Z,22.03
2018-02-05T11:14:34.143Z,17.60
2018-02-05T11:17:03.272Z,15.83
2018-02-05T11:19:32.314Z,35.27
2018-02-05T11:22:01.486Z,18.90
2018-02-05T11:24:31.078Z,17.90
2018-02-05T11:27:00.111Z,14.70
2018-02-05T11:29:29.079Z,19.00
2018-02-05T11:31:56.827Z,15.30
2018-02-05T11:34:24.429Z,26.23
2018-02-05T11:36:52.001Z,17.03
2018-02-05T11:39:19.608Z,18.27
2018-02-05T11:41:47.180Z,14.20
2018-02-05T11:44:14.750Z,31.07
2018-02-05T11:46:42.511Z,18.10
2018-02-05T11:49:10.093Z,16.57
2018-02-05T11:51:37.695Z,18.13
2018-02-05T11:54:05.300Z,26.03
2018-02-05T11:56:33.434Z,21.57
2018-02-05T11:59:01.019Z,24.30
2018-02-05T12:01:28.664Z,18.53
2018-02-05T12:03:56.238Z,18.70
2018-02-05T12:06:23.817Z,19.63
2018-02-05T12:08:51.437Z,21.90
2018-02-05T12:11:19.128Z,16.00
2018-02-05T12:13:46.690Z,12.40
2018-02-05T12:16:14.304Z,12.77
2018-02-05T12:18:41.946Z,17.50
2018-02-05T12:21:09.633Z,12.37
2018-02-05T12:23:37.239Z,18.50
2018-02-05T12:26:04.828Z,16.23
2018-02-05T12:28:32.395Z,13.17
2018-02-05T12:31:00.010Z,17.20
2018-02-05T12:33:27.591Z,17.17
2018-02-05T12:35:55.154Z,17.67
2018-02-05T12:38:22.751Z,12.83
2018-02-05T12:40:51.184Z,20.50
2018-02-05T12:43:18.754Z,16.17
2018-02-05T12:45:46.489Z,17.03
2018-02-05T12:48:14.111Z,17.70
2018-02-05T12:50:41.689Z,20.83
2018-02-05T12:53:09.332Z,23.43
2018-02-05T12:55:36.944Z,19.90
2018-02-05T12:58:04.561Z,12.17
2018-02-05T13:03:38.411Z,23.17
2018-02-05T13:09:08.274Z,26.83
2018-02-05T13:11:35.880Z,18.87
2018-02-05T13:14:03.474Z,13.60
2018-02-05T13:16:31.047Z,11.03
2018-02-05T13:18:58.639Z,12.67
2018-02-05T13:21:26.196Z,17.00
2018-02-05T13:23:53.776Z,17.27
2018-02-05T13:26:21.403Z,14.30
2018-02-05T13:28:48.977Z,11.53
2018-02-05T13:31:16.567Z,16.50
2018-02-05T13:33:44.213Z,13.77
2018-02-05T13:36:11.788Z,14.63
2018-02-05T13:38:39.363Z,13.97
2018-02-05T13:41:06.977Z,19.30
2018-02-05T13:43:34.561Z,21.70
2018-02-05T13:46:02.126Z,12.73
2018-02-05T13:48:29.743Z,35.60
2018-02-05T13:50:57.508Z,12.93
2018-02-05T13:53:25.177Z,20.17
2018-02-05T13:55:52.776Z,15.50
2018-02-05T13:58:20.351Z,11.80
2018-02-05T14:00:47.946Z,16.27
2018-02-05T14:03:15.550Z,24.13
2018-02-05T14:05:43.132Z,20.20
2018-02-05T14:08:10.940Z,20.80
2018-02-05T14:10:38.597Z,17.20
2018-02-05T14:13:06.342Z,16.93
2018-02-05T14:15:34.177Z,16.70
2018-02-05T14:18:01.836Z,34.03
2018-02-05T14:20:29.461Z,17.60
2018-02-05T14:22:57.021Z,17.60
2018-02-05T14:25:24.694Z,17.33
2018-02-05T14:27:52.358Z,30.03
2018-02-05T14:30:19.978Z,38.20
2018-02-05T14:32:47.614Z,25.70
2018-02-05T14:35:15.226Z,21.37
2018-02-05T14:37:42.795Z,32.90
2018-02-05T14:40:10.411Z,24.30
2018-02-05T14:42:37.959Z,17.93
2018-02-05T14:45:05.517Z,25.83
2018-02-05T14:47:33.124Z,27.97
2018-02-05T14:50:00.693Z,31.30
2018-02-05T14:52:28.256Z,32.67
2018-02-05T14:54:55.860Z,49.43
2018-02-05T14:57:23.452Z,31.87
2018-02-05T14:59:51.007Z,32.20
2018-02-05T15:02:18.665Z,55.50
2018-02-05T15:04:46.245Z,63.83
2018-02-05T15:07:13.809Z,37.97
2018-02-05T15:09:41.474Z,30.77
2018-02-05T15:12:09.054Z,38.70
2018-02-05T15:14:36.658Z,35.43
2018-02-05T15:17:04.257Z,33.50
2018-02-05T15:19:31.849Z,43.33
2018-02-05T15:21:59.493Z,40.33
2018-02-05T15:24:27.136Z,136.37
2018-02-05T15:26:54.700Z,115.13
2018-02-05T15:29:22.264Z,60.00
2018-02-05T15:31:49.883Z,51.50
2018-02-05T15:34:17.448Z,38.43
2018-02-05T15:36:45.142Z,43.03
2018-02-05T15:39:12.761Z,67.10
2018-02-05T15:41:40.321Z,54.90
2018-02-05T15:44:07.964Z,48.10
2018-02-05T15:46:35.586Z,49.37
2018-02-05T15:49:03.159Z,52.50
2018-02-05T15:51:30.761Z,59.53
2018-02-05T15:53:58.370Z,54.40
2018-02-05T15:56:26.078Z,56.77
2018-02-05T15:58:53.675Z,223.80
2018-02-05T16:01:21.300Z,289.57
2018-02-05T16:03:48.919Z,78.97
2018-02-05T16:06:16.487Z,65.07
2018-02-05T16:08:44.108Z,55.93
2018-02-05T16:11:11.685Z,61.40
2018-02-05T16:13:39.328Z,54.43
2018-02-05T16:16:06.976Z,42.67
2018-02-05T16:18:35.330Z,55.45
2018-02-05T16:21:02.904Z,57.97
2018-02-05T16:23:30.533Z,55.23
2018-02-05T16:25:58.170Z,53.70
2018-02-05T16:28:25.729Z,42.87
2018-02-05T16:30:53.346Z,38.77
2018-02-05T16:33:20.914Z,37.53
2018-02-05T16:35:48.505Z,44.63
2018-02-05T16:38:16.142Z,45.93
2018-02-05T16:40:43.804Z,46.40
2018-02-05T16:43:13.975Z,43.80
2018-02-05T16:45:41.946Z,37.50
2018-02-05T16:48:11.123Z,49.33
2018-02-05T16:50:38.921Z,44.23
2018-02-05T16:53:06.537Z,52.27
2018-02-05T16:55:34.129Z,75.23
2018-02-05T16:58:01.761Z,50.47
2018-02-05T17:00:29.408Z,80.80
2018-02-05T17:02:56.995Z,52.27
2018-02-05T17:05:24.581Z,50.37
2018-02-05T17:07:52.181Z,51.67
2018-02-05T17:10:20.646Z,45.00
2018-02-05T17:12:48.211Z,162.30
2018-02-05T17:15:15.835Z,129.57
2018-02-05T17:17:43.407Z,139.37
2018-02-05T17:20:11.002Z,143.70
2018-02-05T17:22:39.498Z,212.00
2018-02-05T17:25:07.058Z,76.00
2018-02-05T17:27:34.628Z,56.33
2018-02-05T17:30:02.227Z,50.80
2018-02-05T17:32:29.788Z,44.90
2018-02-05T17:34:57.386Z,82.97
2018-02-05T17:37:25.123Z,58.90
2018-02-05T17:39:52.697Z,58.17
2018-02-05T17:42:20.267Z,63.53
2018-02-05T17:44:47.869Z,47.93
2018-02-05T17:47:15.463Z,41.10
2018-02-05T17:49:43.225Z,76.87
2018-02-05T17:52:10.824Z,59.23
2018-02-05T17:54:38.392Z,49.83
2018-02-05T17:57:05.966Z,60.77
2018-02-05T17:59:33.547Z,55.67
2018-02-05T18:02:01.114Z,56.57
2018-02-05T18:04:28.877Z,44.93
2018-02-05T18:06:56.484Z,48.70
2018-02-05T18:09:24.064Z,67.23
2018-02-05T18:11:51.726Z,66.27
2018-02-05T18:14:19.317Z,67.17
2018-02-05T18:16:46.886Z,43.93
2018-02-05T18:19:14.447Z,42.80
2018-02-05T18:21:42.054Z,51.53
2018-02-05T18:24:09.762Z,49.30
2018-02-05T18:26:37.367Z,44.07
2018-02-05T18:29:05.043Z,50.30
2018-02-05T18:31:32.618Z,58.57
2018-02-05T18:34:00.187Z,63.67
2018-02-05T18:36:27.829Z,45.25
2018-02-05T18:38:55.532Z,76.00
2018-02-05T18:41:23.110Z,54.60
2018-02-05T18:43:50.748Z,42.43
2018-02-05T18:46:18.353Z,50.13
2018-02-05T18:48:45.930Z,52.23
2018-02-05T18:51:13.537Z,49.00
2018-02-05T18:53:41.124Z,49.23
2018-02-05T18:56:08.691Z,45.80
2018-02-05T18:58:36.439Z,41.77
2018-02-05T19:01:04.101Z,50.67
2018-02-05T19:03:31.653Z,50.50
2018-02-05T19:05:59.250Z,63.83
2018-02-05T19:08:26.840Z,64.53
2018-02-05T19:10:54.390Z,64.00
2018-02-05T19:13:22.013Z,51.90
2018-02-05T19:15:49.584Z,47.73
2018-02-05T19:18:17.141Z,51.20
2018-02-05T19:20:44.765Z,65.57
2018-02-05T19:23:12.370Z,70.43
2018-02-05T19:25:40.085Z,53.47
2018-02-05T19:28:07.724Z,59.03
2018-02-05T19:30:35.291Z,71.30
2018-02-05T19:33:02.873Z,56.40
2018-02-05T19:35:30.471Z,54.73
2018-02-05T19:37:59.479Z,69.40
2018-02-05T19:40:27.085Z,61.87
2018-02-05T19:42:54.740Z,59.03
2018-02-05T19:45:22.486Z,61.13
2018-02-05T19:47:50.124Z,55.07
2018-02-05T19:50:17.699Z,55.33
2018-02-05T19:52:45.298Z,51.40
2018-02-05T19:55:12.919Z,49.10
2018-02-05T19:57:40.485Z,61.50
2018-02-05T20:00:08.060Z,50.50
2018-02-05T20:02:35.795Z,105.40
2018-02-05T20:05:03.360Z,77.53
2018-02-05T20:07:31.041Z,87.63
2018-02-05T20:09:58.632Z,64.90
2018-02-05T20:12:26.192Z,62.67
2018-02-05T20:14:53.745Z,59.63
2018-02-05T20:17:21.495Z,67.50
2018-02-05T20:19:49.074Z,60.97
2018-02-05T20:22:16.636Z,65.70
2018-02-05T20:24:44.222Z,68.73
2018-02-05T20:27:11.785Z,66.40
2018-02-05T20:29:39.359Z,66.00
2018-02-05T20:32:06.949Z,73.40
2018-02-05T20:34:34.513Z,66.60
2018-02-05T20:37:02.086Z,78.37
2018-02-05T20:39:29.688Z,76.40
2018-02-05T20:41:57.314Z,76.20
2018-02-05T20:44:24.976Z,84.33
2018-02-05T20:46:52.596Z,67.73
2018-02-05T20:49:20.155Z,60.90
2018-02-05T20:51:47.754Z,66.57
2018-02-05T20:54:15.339Z,63.50
2018-02-05T20:56:42.903Z,63.03
2018-02-05T20:59:10.461Z,64.07
2018-02-05T21:01:38.144Z,68.13
2018-02-05T21:04:05.734Z,66.23
2018-02-05T21:06:33.311Z,77.10
2018-02-05T21:09:00.893Z,72.28
2018-02-05T21:11:28.445Z,76.00
2018-02-05T21:13:55.993Z,68.90
2018-02-05T21:16:23.589Z,77.00
2018-02-05T21:18:51.147Z,93.53
2018-02-05T21:21:18.702Z,68.53
2018-02-05T21:23:46.301Z,93.17
2018-02-05T21:26:13.851Z,77.07
2018-02-05T21:28:41.418Z,84.00
2018-02-05T21:31:08.990Z,68.07
2018-02-05T21:33:36.543Z,74.43
2018-02-05T21:36:04.132Z,57.10
2018-02-05T21:38:31.748Z,56.43
2018-02-05T21:40:59.351Z,50.43
2018-02-05T21:43:26.928Z,61.97
2018-02-05T21:45:54.532Z,59.47
2018-02-05T21:48:22.134Z,70.67
2018-02-05T21:50:49.711Z,63.43
2018-02-05T21:53:17.299Z,70.93
2018-02-05T21:55:44.892Z,58.57
2018-02-05T21:58:12.447Z,53.90
2018-02-05T22:00:40.053Z,62.87
2018-02-05T22:03:07.657Z,54.30
2018-02-05T22:05:35.242Z,60.03
2018-02-05T22:08:02.840Z,55.20
2018-02-05T22:10:30.400Z,49.87
2018-02-05T22:12:58.056Z,46.23
2018-02-05T22:15:25.646Z,58.87
2018-02-05T22:17:53.213Z,51.57
2018-02-05T22:20:20.785Z,47.80
2018-02-05T22:22:48.404Z,47.87
2018-02-05T22:25:15.970Z,46.63
2018-02-05T22:27:43.544Z,40.67
2018-02-05T22:30:11.153Z,43.43
2018-02-05T22:32:38.718Z,42.57
2018-02-05T22:35:06.273Z,41.50
2018-02-05T22:37:33.905Z,40.10
2018-02-05T22:40:01.459Z,41.23
2018-02-05T22:42:29.014Z,46.37
2018-02-05T22:44:56.633Z,45.57
2018-02-05T22:47:24.184Z,44.70
2018-02-05T22:49:51.736Z,49.27
2018-02-05T22:52:19.327Z,45.80
2018-02-05T22:54:46.889Z,54.83
2018-02-05T22:57:14.449Z,41.57
2018-02-05T22:59:42.056Z,39.97
2018-02-05T23:02:09.621Z,70.97
2018-02-05T23:04:37.183Z,55.00
2018-02-05T23:07:04.780Z,40.53
2018-02-05T23:09:32.347Z,43.20
2018-02-05T23:11:59.903Z,38.57
2018-02-05T23:14:27.514Z,48.00
2018-02-05T23:16:55.696Z,38.30
2018-02-05T23:19:25.090Z,52.83
2018-02-05T23:21:52.819Z,70.93
2018-02-05T23:24:20.369Z,53.47
2018-02-05T23:26:47.945Z,47.47
2018-02-05T23:29:15.536Z,49.93
2018-02-05T23:31:43.096Z,53.70
2018-02-05T23:34:11.876Z,43.30
2018-02-05T23:36:39.768Z,51.40
2018-02-05T23:39:07.334Z,47.87
2018-02-05T23:41:35.052Z,50.67
2018-02-05T23:44:02.636Z,53.43
2018-02-05T23:46:30.332Z,47.83
2018-02-05T23:48:57.884Z,44.10
2018-02-05T23:51:25.491Z,53.30
2018-02-05T23:53:53.050Z,46.93
2018-02-05T23:56:20.660Z,51.17
2018-02-05T23:58:48.412Z,51.07
